Time;durP1;ratioP1;P1;durP2;ratioP2;P2;SDS_P1;SDS_P2;PMS_P1;PMS_P2;Temp;Humidity;BMP_temperature;BMP_pressure;BME280_temperature;BME280_humidity;BME280_pressure;Samples;Min_cycle;Max_cycle;Signal;HPM_P1;HPM_P2
2023/02/08 00:01:15;;;;;;;23.57;15.90;;;0.70;99.90;;;;;;5032288;28;20525;-59
2023/02/08 00:03:44;;;;;;;22.50;15.83;;;0.40;99.90;;;;;;5022626;28;20465;-59
2023/02/08 00:06:13;;;;;;;21.63;15.17;;;0.30;99.90;;;;;;5028751;28;20826;-58
2023/02/08 00:08:41;;;;;;;20.43;14.30;;;0.10;99.90;;;;;;5032327;28;20966;-59
2023/02/08 00:11:10;;;;;;;21.97;14.80;;;-0.10;99.90;;;;;;5032577;28;20456;-59
2023/02/08 00:13:40;;;;;;;18.37;13.03;;;0.00;99.90;;;;;;5026387;28;20474;-59
2023/02/08 00:16:12;;;;;;;19.17;13.50;;;0.00;99.90;;;;;;5024621;28;20525;-59
2023/02/08 00:18:40;;;;;;;21.37;15.43;;;0.10;99.90;;;;;;5032282;28;20566;-59
2023/02/08 00:21:10;;;;;;;24.27;16.03;;;0.20;99.90;;;;;;5032760;28;20463;-59
2023/02/08 00:23:38;;;;;;;20.87;13.73;;;0.10;99.90;;;;;;5032274;28;20471;-59
2023/02/08 00:26:07;;;;;;;22.80;16.37;;;0.30;99.90;;;;;;5023848;28;20472;-59
2023/02/08 00:28:35;;;;;;;23.57;16.10;;;0.00;99.90;;;;;;5012724;28;20967;-59
2023/02/08 00:31:03;;;;;;;19.40;14.30;;;-0.20;99.90;;;;;;5012292;28;20478;-59
2023/02/08 00:33:33;;;;;;;19.67;13.60;;;-0.10;99.90;;;;;;5011223;28;20911;-58
2023/02/08 00:36:02;;;;;;;21.23;15.00;;;-0.10;99.90;;;;;;5041081;28;20460;-58
2023/02/08 00:38:30;;;;;;;21.03;16.00;;;-0.40;99.90;;;;;;5033597;28;20485;-58
2023/02/08 00:40:59;;;;;;;23.43;15.80;;;-0.30;99.90;;;;;;5036154;28;20459;-59
2023/02/08 00:43:27;;;;;;;22.57;15.47;;;-0.30;99.90;;;;;;5031459;28;20487;-59
2023/02/08 00:45:55;;;;;;;20.43;14.00;;;-0.50;99.90;;;;;;5034043;28;20466;-59
2023/02/08 00:48:25;;;;;;;22.10;14.20;;;-0.50;99.90;;;;;;5036404;28;20859;-58
2023/02/08 00:51:06;;;;;;;25.60;15.17;;;-0.30;99.90;;;;;;5036082;28;20455;-58
2023/02/08 00:53:36;;;;;;;18.93;12.53;;;-0.60;99.90;;;;;;5036115;28;20943;-59
2023/02/08 00:56:05;;;;;;;16.83;11.63;;;-0.60;99.90;;;;;;5035848;28;20463;-59
2023/02/08 00:58:34;;;;;;;20.67;13.73;;;-0.40;99.90;;;;;;5035961;28;20483;-59
2023/02/08 01:01:03;;;;;;;22.23;15.13;;;-0.10;99.90;;;;;;5035552;28;20467;-57
2023/02/08 01:03:34;;;;;;;25.00;14.93;;;0.10;99.90;;;;;;5035908;28;20479;-59
2023/02/08 01:06:06;;;;;;;23.53;16.40;;;0.20;99.90;;;;;;5037301;28;20973;-59
2023/02/08 01:08:34;;;;;;;25.37;16.70;;;0.10;99.90;;;;;;5035376;28;20470;-58
2023/02/08 01:11:04;;;;;;;24.77;16.13;;;-0.30;99.90;;;;;;5035914;28;20446;-59
2023/02/08 01:13:32;;;;;;;23.70;16.67;;;-0.50;99.90;;;;;;5023472;28;20479;-58
2023/02/08 01:16:09;;;;;;;20.93;15.00;;;-0.30;99.90;;;;;;5032649;28;20878;-58
2023/02/08 01:18:37;;;;;;;22.47;16.17;;;-0.20;99.90;;;;;;5020502;28;20470;-60
2023/02/08 01:21:11;;;;;;;21.87;15.40;;;-0.30;99.90;;;;;;5024822;28;20517;-58
2023/02/08 01:23:40;;;;;;;22.87;15.67;;;-0.60;99.90;;;;;;5035237;28;20908;-58
2023/02/08 01:26:09;;;;;;;22.40;15.63;;;-0.80;99.90;;;;;;5024963;28;20459;-59
2023/02/08 01:28:38;;;;;;;22.00;15.37;;;-0.90;99.90;;;;;;5015402;28;20488;-58
2023/02/08 01:31:07;;;;;;;17.60;11.93;;;-1.00;99.90;;;;;;5015077;28;20480;-58
2023/02/08 01:33:36;;;;;;;19.57;13.00;;;-0.60;99.90;;;;;;5015344;28;20909;-58
2023/02/08 01:36:05;;;;;;;25.87;17.60;;;-0.30;99.90;;;;;;5029660;28;20554;-59
2023/02/08 01:38:36;;;;;;;20.07;12.53;;;-0.30;99.90;;;;;;5034824;28;20494;-59
2023/02/08 01:41:05;;;;;;;21.23;14.27;;;-0.10;99.90;;;;;;5035044;28;20470;-59
2023/02/08 01:43:35;;;;;;;25.07;15.33;;;0.00;99.90;;;;;;5028265;28;20488;-59
2023/02/08 01:46:03;;;;;;;24.97;16.17;;;0.30;99.90;;;;;;5032915;28;20474;-59
2023/02/08 01:48:35;;;;;;;26.30;18.73;;;0.10;99.90;;;;;;5030254;28;20471;-58
2023/02/08 01:51:08;;;;;;;25.47;17.53;;;-0.30;99.90;;;;;;5034736;28;20471;-58
2023/02/08 01:53:39;;;;;;;22.13;15.50;;;-0.60;99.90;;;;;;5014970;28;21027;-58
2023/02/08 01:56:12;;;;;;;20.00;13.07;;;-0.90;99.90;;;;;;5015095;28;20452;-59
2023/02/08 01:58:43;;;;;;;22.00;14.77;;;-0.50;99.90;;;;;;5029985;28;20980;-58
2023/02/08 02:01:12;;;;;;;25.40;16.83;;;-0.20;99.90;;;;;;5029697;28;20472;-58
2023/02/08 02:03:40;;;;;;;20.20;13.13;;;-0.60;99.90;;;;;;5014809;28;20523;-59
2023/02/08 02:06:11;;;;;;;17.53;12.63;;;-0.70;99.90;;;;;;5018149;28;20842;-59
2023/02/08 02:08:47;;;;;;;22.27;15.63;;;-0.70;99.90;;;;;;5034281;28;20796;-58
2023/02/08 02:11:16;;;;;;;16.87;12.00;;;-1.00;99.90;;;;;;5033278;28;20470;-59
2023/02/08 02:13:45;;;;;;;21.17;14.57;;;-0.80;99.90;;;;;;5027795;28;20464;-58
2023/02/08 02:16:15;;;;;;;23.93;15.00;;;-0.80;99.90;;;;;;5034356;28;20979;-58
2023/02/08 02:18:43;;;;;;;22.93;14.50;;;-1.00;99.90;;;;;;5031444;28;20463;-58
2023/02/08 02:21:32;;;;;;;21.83;14.83;;;-1.20;99.90;;;;;;5014594;28;20457;-58
2023/02/08 02:24:37;;;;;;;22.73;15.13;;;-1.30;99.90;;;;;;5014520;28;20464;-58
2023/02/08 02:27:29;;;;;;;20.40;14.13;;;-1.30;99.90;;;;;;5031219;28;20982;-58
2023/02/08 02:30:39;;;;;;;20.27;13.93;;;-1.40;99.90;;;;;;5032820;28;20468;-58
2023/02/08 02:33:30;;;;;;;18.73;13.60;;;-1.50;99.90;;;;;;5054097;28;20497;-59
2023/02/08 02:36:03;;;;;;;20.70;13.87;;;-1.50;99.90;;;;;;5053936;28;20466;-58
2023/02/08 02:38:44;;;;;;;18.00;14.17;;;-1.50;99.90;;;;;;5053536;28;20477;-59
2023/02/08 02:44:14;;;;;;;15.27;11.47;;;-1.50;99.90;;;;;;5053383;28;20466;-59
2023/02/08 02:46:49;;;;;;;18.13;13.13;;;-0.90;99.90;;;;;;5053260;28;20472;-59
2023/02/08 02:49:23;;;;;;;19.10;14.17;;;-0.70;99.90;;;;;;5046707;28;20470;-58
2023/02/08 02:51:57;;;;;;;19.20;13.43;;;-0.90;99.90;;;;;;5053579;28;20472;-58
2023/02/08 02:54:32;;;;;;;22.93;15.97;;;-0.90;99.90;;;;;;5053524;28;20965;-58
2023/02/08 02:57:04;;;;;;;22.27;13.63;;;-1.10;99.90;;;;;;5053585;28;20454;-58
2023/02/08 02:59:34;;;;;;;26.03;16.37;;;-1.10;99.90;;;;;;5053533;28;20830;-58
2023/02/08 03:02:03;;;;;;;23.33;15.00;;;-1.00;99.90;;;;;;5035358;28;20479;-59
2023/02/08 03:04:50;;;;;;;21.80;15.03;;;-0.80;99.90;;;;;;5053279;28;20467;-58
2023/02/08 03:07:36;;;;;;;23.80;15.73;;;-0.60;99.90;;;;;;5040355;28;20459;-58
2023/02/08 03:10:38;;;;;;;22.30;14.43;;;-0.60;99.90;;;;;;5033365;28;20459;-59
2023/02/08 03:13:25;;;;;;;20.33;14.20;;;-0.60;99.90;;;;;;5017026;28;20978;-58
2023/02/08 03:16:03;;;;;;;25.33;16.93;;;-0.60;99.90;;;;;;5026037;28;20470;-59
2023/02/08 03:18:37;;;;;;;22.73;15.23;;;-0.40;99.90;;;;;;5042746;28;20463;-58
2023/02/08 03:21:11;;;;;;;29.73;18.57;;;-0.20;99.90;;;;;;5052850;28;20887;-58
2023/02/08 03:23:46;;;;;;;25.07;17.37;;;-0.20;99.90;;;;;;5049778;28;20485;-58
2023/02/08 03:26:21;;;;;;;23.30;17.07;;;-0.20;99.90;;;;;;5053289;28;20462;-59
2023/02/08 03:28:57;;;;;;;31.30;21.17;;;-0.20;99.90;;;;;;5053081;28;20466;-58
2023/02/08 03:31:30;;;;;;;27.33;18.30;;;-0.50;99.90;;;;;;5052661;28;20485;-59
2023/02/08 03:34:05;;;;;;;24.70;16.67;;;-0.80;99.90;;;;;;5053183;28;20984;-58
2023/02/08 03:36:42;;;;;;;25.47;17.40;;;-0.70;99.90;;;;;;5045933;28;20471;-59
2023/02/08 03:39:15;;;;;;;23.33;17.03;;;-0.60;99.90;;;;;;5025231;28;20475;-58
2023/02/08 03:41:46;;;;;;;28.87;20.30;;;-0.50;99.90;;;;;;5032960;28;20489;-59
2023/02/08 03:44:19;;;;;;;28.03;19.63;;;-0.50;99.90;;;;;;5026043;28;20835;-58
2023/02/08 03:46:51;;;;;;;33.20;21.37;;;-0.80;99.90;;;;;;5034189;28;20463;-58
2023/02/08 03:49:23;;;;;;;30.77;21.13;;;-1.10;99.90;;;;;;5044344;28;20458;-58
2023/02/08 03:51:54;;;;;;;33.97;21.87;;;-1.30;99.90;;;;;;5052706;28;20462;-57
2023/02/08 03:54:27;;;;;;;32.73;20.30;;;-1.40;99.90;;;;;;5052893;28;20462;-58
2023/02/08 03:57:04;;;;;;;30.43;20.97;;;-1.50;99.90;;;;;;5052857;28;20799;-58
2023/02/08 03:59:36;;;;;;;36.83;22.47;;;-1.60;99.90;;;;;;5052756;28;20469;-58
2023/02/08 04:02:08;;;;;;;34.87;22.03;;;-1.50;99.90;;;;;;5052046;28;20474;-58
2023/02/08 04:04:45;;;;;;;33.23;22.13;;;-1.60;99.90;;;;;;5052663;28;20994;-58
2023/02/08 04:07:16;;;;;;;31.83;20.27;;;-1.60;99.90;;;;;;5040300;28;20466;-58
2023/02/08 04:09:44;;;;;;;33.50;21.90;;;-1.60;99.90;;;;;;5032656;28;20522;-58
2023/02/08 04:12:12;;;;;;;35.20;20.40;;;-1.60;99.90;;;;;;5033379;28;20505;-58
2023/02/08 04:14:40;;;;;;;31.27;20.80;;;-1.60;99.90;;;;;;5029941;28;20474;-58
2023/02/08 04:17:08;;;;;;;34.47;20.43;;;-1.60;99.90;;;;;;5041324;28;20470;-58
2023/02/08 04:19:36;;;;;;;34.93;21.20;;;-1.60;99.90;;;;;;5047995;28;20473;-58
2023/02/08 04:22:04;;;;;;;33.93;21.47;;;-1.60;99.90;;;;;;5056705;28;21078;-58
2023/02/08 04:24:34;;;;;;;34.23;21.57;;;-1.60;99.90;;;;;;5056611;28;20485;-58
2023/02/08 04:27:02;;;;;;;32.10;20.67;;;-1.60;99.90;;;;;;5056356;28;20469;-58
2023/02/08 04:29:33;;;;;;;34.23;20.20;;;-1.40;99.90;;;;;;5056421;28;20873;-58
2023/02/08 04:32:02;;;;;;;35.50;21.27;;;-1.50;99.90;;;;;;5056002;28;20494;-58
2023/02/08 04:34:30;;;;;;;35.63;20.73;;;-1.30;99.90;;;;;;5056373;28;20822;-58
2023/02/08 04:36:58;;;;;;;31.40;19.40;;;-1.40;99.90;;;;;;5045955;28;20474;-58
2023/02/08 04:39:26;;;;;;;34.33;20.63;;;-1.10;99.90;;;;;;5045754;28;20520;-58
2023/02/08 04:41:56;;;;;;;37.33;23.97;;;-0.90;99.90;;;;;;5055957;28;21014;-58
2023/02/08 04:44:24;;;;;;;35.27;22.63;;;-0.80;99.90;;;;;;5036979;28;20474;-58
2023/02/08 04:46:52;;;;;;;36.73;22.43;;;-1.10;99.90;;;;;;5038576;28;20467;-58
2023/02/08 04:49:20;;;;;;;33.53;20.13;;;-1.30;99.90;;;;;;5047651;28;20462;-58
2023/02/08 04:51:48;;;;;;;40.57;23.07;;;-1.00;99.90;;;;;;5056030;28;20466;-58
2023/02/08 04:54:16;;;;;;;31.77;19.37;;;-0.70;99.90;;;;;;5055933;28;20455;-58
2023/02/08 04:56:44;;;;;;;36.90;21.27;;;-0.80;99.90;;;;;;5055638;28;20485;-58
2023/02/08 04:59:14;;;;;;;33.73;21.70;;;-0.60;99.90;;;;;;5056077;28;20468;-58
2023/02/08 05:01:42;;;;;;;32.50;20.03;;;-0.70;99.90;;;;;;5055159;28;20478;-58
2023/02/08 05:04:10;;;;;;;36.57;22.80;;;-0.50;99.90;;;;;;5055756;28;20457;-58
2023/02/08 05:06:38;;;;;;;37.97;23.23;;;-0.30;99.90;;;;;;5048115;28;20828;-58
2023/02/08 05:09:07;;;;;;;45.83;27.73;;;-0.20;99.90;;;;;;5035839;28;20819;-59
2023/02/08 05:11:36;;;;;;;44.03;26.00;;;-0.60;99.90;;;;;;5035777;28;20467;-58
2023/02/08 05:14:05;;;;;;;43.93;25.93;;;-1.00;99.90;;;;;;5035674;28;20506;-58
2023/02/08 05:16:34;;;;;;;43.07;26.13;;;-1.20;99.90;;;;;;5035553;28;20886;-58
2023/02/08 05:19:02;;;;;;;39.20;23.90;;;-1.40;99.90;;;;;;5047283;28;20486;-58
2023/02/08 05:21:30;;;;;;;44.10;24.93;;;-1.50;99.90;;;;;;5026199;28;20843;-58
2023/02/08 05:23:58;;;;;;;35.30;22.37;;;-1.50;99.90;;;;;;5014526;28;20900;-58
2023/02/08 05:26:27;;;;;;;40.40;23.53;;;-1.60;99.90;;;;;;5031546;28;20914;-58
2023/02/08 05:28:55;;;;;;;43.07;24.57;;;-1.60;99.90;;;;;;5041241;28;20990;-58
2023/02/08 05:31:25;;;;;;;37.83;23.80;;;-1.60;99.90;;;;;;5034595;28;20570;-58
2023/02/08 05:33:55;;;;;;;43.97;24.57;;;-1.60;99.90;;;;;;5035487;28;20818;-58
2023/02/08 05:36:23;;;;;;;40.27;24.23;;;-1.70;99.90;;;;;;5035380;28;20463;-58
2023/02/08 05:38:52;;;;;;;38.43;21.80;;;-1.70;99.90;;;;;;5035255;28;20541;-57
2023/02/08 05:41:20;;;;;;;40.67;23.30;;;-1.60;99.90;;;;;;5034932;28;20749;-58
2023/02/08 05:43:48;;;;;;;39.53;23.23;;;-1.50;99.90;;;;;;5028128;28;20483;-58
2023/02/08 05:46:16;;;;;;;39.80;23.50;;;-1.40;99.90;;;;;;5035257;28;20463;-58
2023/02/08 05:48:44;;;;;;;42.40;24.53;;;-1.40;99.90;;;;;;5035865;28;20561;-59
2023/02/08 05:51:14;;;;;;;44.40;24.87;;;-1.50;99.90;;;;;;5034637;28;20464;-58
2023/02/08 05:53:44;;;;;;;42.37;23.93;;;-1.60;99.90;;;;;;5031926;28;20460;-57
2023/02/08 05:56:12;;;;;;;40.37;23.13;;;-1.60;99.90;;;;;;5015344;28;20824;-58
2023/02/08 05:58:40;;;;;;;42.90;24.60;;;-1.50;99.90;;;;;;5022645;28;20450;-58
2023/02/08 06:01:10;;;;;;;41.53;23.37;;;-1.60;99.90;;;;;;5034186;28;20495;-58
2023/02/08 06:03:38;;;;;;;41.03;23.07;;;-1.60;99.90;;;;;;5034586;28;20800;-59
2023/02/08 06:06:09;;;;;;;41.80;23.23;;;-1.20;99.90;;;;;;5034714;28;20983;-58
2023/02/08 06:08:39;;;;;;;42.80;24.90;;;-0.80;99.90;;;;;;5034587;28;20467;-59
2023/02/08 06:11:08;;;;;;;51.17;27.83;;;-0.80;99.90;;;;;;5034536;28;20459;-58
2023/02/08 06:13:36;;;;;;;44.93;26.67;;;-1.10;99.90;;;;;;5029772;28;20831;-58
2023/02/08 06:16:04;;;;;;;53.53;29.57;;;-1.00;99.90;;;;;;5034111;28;20490;-58
2023/02/08 06:18:32;;;;;;;52.00;28.47;;;-0.70;99.90;;;;;;5035667;28;20521;-58
2023/02/08 06:21:00;;;;;;;49.23;28.03;;;-1.10;99.90;;;;;;5034417;28;20468;-58
2023/02/08 06:23:28;;;;;;;45.77;28.63;;;-1.40;99.90;;;;;;5034124;28;20463;-58
2023/02/08 06:25:58;;;;;;;54.90;30.10;;;-1.50;99.90;;;;;;5033435;28;20835;-58
2023/02/08 06:28:26;;;;;;;47.00;27.90;;;-1.60;99.90;;;;;;5028661;28;20827;-59
2023/02/08 06:30:54;;;;;;;49.60;28.37;;;-1.60;99.90;;;;;;5026033;28;20519;-58
2023/02/08 06:33:23;;;;;;;40.50;23.70;;;-1.70;99.90;;;;;;5031276;28;20467;-58
2023/02/08 06:35:52;;;;;;;49.33;26.60;;;-1.70;99.90;;;;;;5029893;28;20983;-58
2023/02/08 06:38:20;;;;;;;46.00;27.47;;;-1.70;99.90;;;;;;5027245;28;20538;-58
2023/02/08 06:40:49;;;;;;;47.90;27.30;;;-1.70;99.90;;;;;;5027133;28;20460;-59
2023/02/08 06:43:19;;;;;;;45.10;27.43;;;-1.60;99.90;;;;;;5030256;28;20480;-58
2023/02/08 06:45:47;;;;;;;45.40;25.40;;;-1.60;99.90;;;;;;5032419;28;20456;-58
2023/02/08 06:48:15;;;;;;;46.43;26.07;;;-1.50;99.90;;;;;;5032378;28;20494;-59
2023/02/08 06:50:44;;;;;;;49.53;28.07;;;-1.50;99.90;;;;;;5032217;28;20781;-58
2023/02/08 06:53:12;;;;;;;49.73;27.53;;;-1.60;99.90;;;;;;5032936;28;20975;-58
2023/02/08 06:55:40;;;;;;;44.87;26.03;;;-1.70;99.90;;;;;;5032790;28;20460;-58
2023/02/08 06:58:08;;;;;;;41.57;23.70;;;-1.80;99.90;;;;;;5029439;28;20474;-59
2023/02/08 07:00:38;;;;;;;44.60;26.30;;;-1.70;99.90;;;;;;5026758;28;20466;-58
2023/02/08 07:03:06;;;;;;;44.13;25.50;;;-1.70;99.90;;;;;;5030275;28;20506;-59
2023/02/08 07:05:35;;;;;;;43.30;25.27;;;-1.60;99.90;;;;;;5032103;28;20463;-58
2023/02/08 07:08:03;;;;;;;44.67;26.70;;;-1.60;99.90;;;;;;5025066;28;20467;-58
2023/02/08 07:10:32;;;;;;;41.77;26.03;;;-1.70;99.90;;;;;;5029261;28;20478;-58
2023/02/08 07:13:02;;;;;;;43.93;25.70;;;-1.70;99.90;;;;;;5030140;28;20484;-58
2023/02/08 07:15:30;;;;;;;49.23;26.63;;;-1.80;99.90;;;;;;5031911;28;20563;-58
2023/02/08 07:17:59;;;;;;;40.73;24.40;;;-1.80;99.90;;;;;;5033453;28;20947;-58
2023/02/08 07:20:27;;;;;;;42.80;24.70;;;-1.80;99.90;;;;;;5031599;28;20467;-58
2023/02/08 07:22:56;;;;;;;41.27;23.77;;;-1.60;99.90;;;;;;5032781;28;20487;-57
2023/02/08 07:25:24;;;;;;;44.23;25.60;;;-1.70;99.90;;;;;;5019108;28;21013;-57
2023/02/08 07:27:52;;;;;;;42.83;24.63;;;-1.70;99.90;;;;;;5016093;28;20477;-58
2023/02/08 07:30:20;;;;;;;43.17;25.23;;;-1.70;99.90;;;;;;5032522;28;20472;-58
2023/02/08 07:32:48;;;;;;;40.90;23.83;;;-1.60;99.90;;;;;;5033128;28;20966;-59
2023/02/08 07:35:18;;;;;;;42.40;23.93;;;-1.70;99.90;;;;;;5033054;28;20477;-57
2023/02/08 07:37:46;;;;;;;43.50;23.57;;;-1.70;99.90;;;;;;5033040;28;21035;-58
2023/02/08 07:40:14;;;;;;;44.40;24.70;;;-1.70;99.90;;;;;;5032964;28;20470;-58
2023/02/08 07:42:42;;;;;;;40.47;24.13;;;-1.60;99.90;;;;;;5032502;28;20483;-57
2023/02/08 07:45:26;;;;;;;45.00;26.03;;;-1.70;99.90;;;;;;5026782;28;20463;-58
2023/02/08 07:47:54;;;;;;;39.40;22.20;;;-1.60;99.90;;;;;;5033587;28;20478;-58
2023/02/08 07:50:23;;;;;;;42.53;25.03;;;-1.50;99.90;;;;;;5029074;28;20983;-58
2023/02/08 07:52:51;;;;;;;43.03;25.30;;;-1.40;99.90;;;;;;5012653;28;20468;-57
2023/02/08 07:55:19;;;;;;;45.70;26.07;;;-1.40;99.90;;;;;;5012939;28;20889;-58
2023/02/08 07:57:49;;;;;;;42.60;23.33;;;-1.30;99.90;;;;;;5013111;28;20472;-58
2023/02/08 08:00:18;;;;;;;42.80;25.43;;;-1.30;99.90;;;;;;5030241;28;20478;-58
2023/02/08 08:02:49;;;;;;;46.13;27.30;;;-1.20;99.90;;;;;;5032456;28;20541;-58
2023/02/08 08:05:17;;;;;;;46.73;27.60;;;-1.20;99.90;;;;;;5032934;28;21022;-58
2023/02/08 08:07:46;;;;;;;45.07;27.00;;;-1.00;99.90;;;;;;5032421;28;20463;-58
2023/02/08 08:10:14;;;;;;;45.20;26.90;;;-0.80;99.90;;;;;;5032828;28;20467;-58
2023/02/08 08:12:42;;;;;;;45.43;26.33;;;-0.80;99.90;;;;;;5032386;28;21021;-59
2023/02/08 08:15:11;;;;;;;41.00;24.93;;;-0.50;99.90;;;;;;5024749;28;20474;-58
2023/02/08 08:17:40;;;;;;;47.93;27.67;;;-0.30;99.90;;;;;;5033501;28;20831;-58
2023/02/08 08:20:10;;;;;;;48.83;27.50;;;-0.30;99.90;;;;;;5032984;28;20463;-58
2023/02/08 08:22:38;;;;;;;48.63;28.03;;;-0.30;99.90;;;;;;5032547;28;20492;-58
2023/02/08 08:25:08;;;;;;;44.93;26.53;;;-0.30;99.90;;;;;;5031644;28;20482;-58
2023/02/08 08:27:36;;;;;;;47.07;27.13;;;-0.30;99.90;;;;;;5012768;28;20979;-58
2023/02/08 08:30:06;;;;;;;46.13;27.03;;;-0.20;99.90;;;;;;5029463;28;20463;-58
2023/02/08 08:32:34;;;;;;;42.73;24.93;;;-0.20;99.90;;;;;;5036410;28;20471;-57
2023/02/08 08:35:02;;;;;;;43.80;25.70;;;-0.10;99.90;;;;;;5032422;28;20995;-58
2023/02/08 08:37:30;;;;;;;46.37;26.93;;;0.20;99.90;;;;;;5032504;28;20828;-58
2023/02/08 08:39:58;;;;;;;41.60;24.90;;;0.30;99.90;;;;;;5031100;28;20966;-58
2023/02/08 08:42:28;;;;;;;40.50;24.73;;;0.40;99.90;;;;;;5032106;28;20476;-58
2023/02/08 08:44:56;;;;;;;43.20;25.83;;;0.60;99.90;;;;;;5022757;28;20521;-58
2023/02/08 08:47:24;;;;;;;42.77;24.47;;;0.90;99.90;;;;;;5026658;28;20865;-58
2023/02/08 08:49:52;;;;;;;42.47;25.53;;;1.00;99.90;;;;;;5032228;28;20475;-58
2023/02/08 08:52:20;;;;;;;44.63;26.20;;;1.20;99.90;;;;;;5032231;28;20975;-58
2023/02/08 08:54:48;;;;;;;48.43;26.03;;;1.30;99.90;;;;;;5031581;28;20467;-58
2023/02/08 08:57:16;;;;;;;41.80;25.83;;;1.50;99.90;;;;;;5020571;28;20483;-58
2023/02/08 08:59:46;;;;;;;45.47;25.93;;;1.70;99.90;;;;;;5029202;28;20467;-58
2023/02/08 09:02:16;;;;;;;43.33;25.67;;;1.80;99.90;;;;;;5029515;28;20479;-58
2023/02/08 09:04:46;;;;;;;38.83;24.00;;;2.00;99.90;;;;;;5028988;28;20472;-58
2023/02/08 09:07:14;;;;;;;41.50;25.60;;;2.20;99.90;;;;;;5028733;28;20821;-58
2023/02/08 09:09:46;;;;;;;41.53;25.17;;;2.40;99.90;;;;;;5035516;28;20870;-58
2023/02/08 09:12:16;;;;;;;40.83;25.07;;;2.60;99.90;;;;;;5028408;28;20958;-58
2023/02/08 09:14:47;;;;;;;37.23;23.73;;;2.70;99.90;;;;;;5025295;28;20479;-59
2023/02/08 09:17:15;;;;;;;42.33;25.07;;;2.90;99.90;;;;;;5029501;28;21002;-58
2023/02/08 09:19:44;;;;;;;34.40;23.20;;;3.10;99.90;;;;;;5035119;28;20829;-58
2023/02/08 09:22:12;;;;;;;37.37;23.57;;;3.20;99.90;;;;;;5035425;28;20474;-58
2023/02/08 09:24:40;;;;;;;38.87;22.80;;;3.30;99.90;;;;;;5035452;28;20487;-58
2023/02/08 09:27:08;;;;;;;34.93;22.37;;;3.40;99.90;;;;;;5030659;28;20471;-59
2023/02/08 09:29:36;;;;;;;32.50;20.90;;;3.60;99.90;;;;;;5015869;28;20477;-58
2023/02/08 09:32:05;;;;;;;34.43;21.57;;;3.40;99.90;;;;;;5028401;28;20503;-58
2023/02/08 09:34:37;;;;;;;34.33;22.63;;;3.40;99.90;;;;;;5035536;28;20917;-58
2023/02/08 09:37:07;;;;;;;32.87;21.73;;;3.50;99.90;;;;;;5035478;28;20429;-58
2023/02/08 09:39:35;;;;;;;29.77;18.50;;;3.80;99.90;;;;;;5035213;28;21094;-58
2023/02/08 09:42:20;;;;;;;33.13;21.33;;;3.90;99.90;;;;;;5033365;28;21008;-58
2023/02/08 09:45:01;;;;;;;33.80;21.20;;;4.20;99.90;;;;;;5028247;28;20498;-58
2023/02/08 09:47:34;;;;;;;31.67;20.83;;;4.40;99.90;;;;;;5035928;28;20506;-58
2023/02/08 09:50:09;;;;;;;27.37;18.13;;;4.60;99.90;;;;;;5033894;28;20474;-58
2023/02/08 09:52:41;;;;;;;28.40;18.30;;;4.70;99.90;;;;;;5034839;28;20466;-58
2023/02/08 09:55:25;;;;;;;28.33;18.03;;;4.80;99.90;;;;;;5015088;28;20466;-59
2023/02/08 09:57:56;;;;;;;27.03;17.17;;;4.50;99.90;;;;;;5015262;28;20801;-59
2023/02/08 10:00:31;;;;;;;26.50;17.70;;;4.70;99.90;;;;;;5014664;28;20967;-59
2023/02/08 10:03:02;;;;;;;29.03;18.57;;;4.70;99.90;;;;;;5029623;28;20470;-58
2023/02/08 10:05:31;;;;;;;25.80;17.37;;;4.90;99.90;;;;;;5034494;28;20459;-58
2023/02/08 10:08:01;;;;;;;25.40;16.90;;;5.00;99.90;;;;;;5034657;28;20467;-59
2023/02/08 10:10:41;;;;;;;28.80;17.33;;;4.90;99.90;;;;;;5024781;28;20966;-59
2023/02/08 10:13:23;;;;;;;27.57;17.07;;;5.20;99.90;;;;;;5028622;28;20474;-59
2023/02/08 10:16:18;;;;;;;28.07;17.83;;;5.50;99.90;;;;;;5029322;28;20482;-59
2023/02/08 10:18:52;;;;;;;24.83;16.87;;;5.60;99.90;;;;;;5030099;28;20560;-59
2023/02/08 10:21:35;;;;;;;24.50;16.60;;;5.60;99.90;;;;;;5029586;28;20865;-58
2023/02/08 10:24:24;;;;;;;23.73;16.37;;;5.60;99.90;;;;;;5029482;28;20491;-58
2023/02/08 10:26:57;;;;;;;22.13;15.67;;;5.50;99.90;;;;;;5029731;28;20467;-58
2023/02/08 10:29:48;;;;;;;24.57;16.10;;;5.60;99.90;;;;;;5029162;28;20568;-58
2023/02/08 10:32:34;;;;;;;27.93;17.10;;;5.90;99.90;;;;;;5027670;28;20491;-59
2023/02/08 10:35:09;;;;;;;22.10;15.00;;;6.10;99.90;;;;;;5029591;28;20467;-58
2023/02/08 10:37:39;;;;;;;25.23;16.90;;;6.10;99.90;;;;;;5029152;28;20492;-58
2023/02/08 10:40:24;;;;;;;24.50;16.23;;;6.20;99.90;;;;;;5029251;28;20474;-59
2023/02/08 10:42:58;;;;;;;22.13;15.53;;;6.40;99.90;;;;;;5028414;28;20241;-58
2023/02/08 10:45:32;;;;;;;23.53;16.50;;;6.40;99.90;;;;;;5025689;28;20485;-58
2023/02/08 10:48:05;;;;;;;23.67;15.87;;;6.40;99.90;;;;;;5033875;28;20227;-58
2023/02/08 10:50:37;;;;;;;22.47;15.37;;;6.40;99.90;;;;;;5033777;28;20466;-59
2023/02/08 10:53:06;;;;;;;21.43;15.47;;;6.50;99.90;;;;;;5034040;28;20244;-59
2023/02/08 10:55:39;;;;;;;23.90;15.83;;;6.40;99.90;;;;;;5033854;28;20231;-59
2023/02/08 10:58:12;;;;;;;21.10;15.47;;;6.50;99.90;;;;;;5033778;28;20470;-59
2023/02/08 11:00:41;;;;;;;23.10;15.93;;;6.70;99.90;;;;;;5017833;28;20675;-58
2023/02/08 11:03:17;;;;;;;24.03;15.97;;;6.80;99.90;;;;;;5013868;28;20499;-58
2023/02/08 11:05:47;;;;;;;23.97;15.93;;;7.10;99.90;;;;;;5013945;28;20229;-58
2023/02/08 11:08:18;;;;;;;22.70;15.23;;;7.20;99.90;;;;;;5014064;28;20232;-58
2023/02/08 11:10:56;;;;;;;22.10;15.23;;;7.20;99.90;;;;;;5013745;28;20869;-58
2023/02/08 11:13:31;;;;;;;22.73;15.47;;;7.30;99.90;;;;;;5018979;28;20231;-58
2023/02/08 11:16:05;;;;;;;23.07;15.97;;;7.30;99.90;;;;;;5033410;28;20229;-59
2023/02/08 11:18:37;;;;;;;22.30;15.77;;;7.40;99.90;;;;;;5034581;28;20267;-58
2023/02/08 11:21:10;;;;;;;23.67;15.93;;;7.50;99.90;;;;;;5033292;28;20275;-58
2023/02/08 11:23:42;;;;;;;22.60;16.10;;;7.50;99.90;;;;;;5032569;28;20703;-58
2023/02/08 11:26:17;;;;;;;24.83;16.30;;;7.70;99.90;;;;;;5027284;28;20697;-59
2023/02/08 11:28:58;;;;;;;24.40;15.40;;;7.70;99.90;;;;;;5032958;28;20232;-59
2023/02/08 11:31:26;;;;;;;24.50;15.93;;;7.70;99.90;;;;;;5027657;28;20256;-59
2023/02/08 11:34:05;;;;;;;22.30;15.90;;;7.90;99.90;;;;;;5014928;28;20229;-57
2023/02/08 11:36:37;;;;;;;23.83;14.97;;;7.90;99.90;;;;;;5033080;28;20584;-58
2023/02/08 11:39:17;;;;;;;22.77;14.50;;;7.90;99.90;;;;;;5033252;28;20465;-58
2023/02/08 11:41:47;;;;;;;23.50;15.23;;;7.80;99.90;;;;;;5033012;28;20235;-58
2023/02/08 11:44:20;;;;;;;24.30;15.03;;;7.70;99.90;;;;;;5026042;28;20252;-59
2023/02/08 11:46:50;;;;;;;21.80;14.43;;;7.80;99.90;;;;;;5027203;28;20229;-58
2023/02/08 11:49:23;;;;;;;21.37;14.33;;;7.80;99.90;;;;;;5032782;28;20236;-58
2023/02/08 11:51:54;;;;;;;22.47;15.43;;;7.90;99.90;;;;;;5033145;28;20331;-58
2023/02/08 11:54:40;;;;;;;20.67;14.37;;;8.00;99.90;;;;;;5030006;28;20590;-58
2023/02/08 11:57:18;;;;;;;22.17;14.90;;;7.90;99.90;;;;;;5032454;28;20228;-58
2023/02/08 11:59:46;;;;;;;20.10;13.50;;;7.80;99.90;;;;;;5017807;28;20236;-58
2023/02/08 12:02:30;;;;;;;20.80;13.63;;;7.70;99.90;;;;;;5027574;28;20236;-58
2023/02/08 12:04:59;;;;;;;20.47;13.57;;;7.60;99.90;;;;;;5029133;28;20237;-58
2023/02/08 12:07:51;;;;;;;19.53;13.23;;;7.30;99.90;;;;;;5026647;28;20239;-58
2023/02/08 12:10:45;;;;;;;18.87;13.33;;;7.30;99.90;;;;;;5024723;28;20714;-58
2023/02/08 12:13:36;;;;;;;20.20;12.90;;;7.20;99.90;;;;;;5028161;28;20255;-58
2023/02/08 12:16:13;;;;;;;20.50;13.87;;;7.20;99.90;;;;;;5018749;28;20642;-58
2023/02/08 12:19:07;;;;;;;19.70;13.13;;;7.30;99.90;;;;;;5033689;28;20750;-58
2023/02/08 12:21:41;;;;;;;19.77;13.17;;;7.30;99.90;;;;;;5029503;28;20239;-58
2023/02/08 12:24:19;;;;;;;18.57;13.27;;;7.40;99.90;;;;;;5032753;28;20251;-58
2023/02/08 12:27:02;;;;;;;20.53;13.23;;;7.50;99.90;;;;;;5028668;28;20237;-58
2023/02/08 12:29:42;;;;;;;20.23;13.07;;;7.50;99.90;;;;;;5022362;28;20232;-58
2023/02/08 12:32:38;;;;;;;21.00;13.77;;;7.50;99.90;;;;;;5016017;28;20725;-58
2023/02/08 12:35:47;;;;;;;18.37;12.43;;;7.50;99.90;;;;;;5018267;28;20248;-58
2023/02/08 12:42:03;;;;;;;23.30;15.57;;;7.60;99.90;;;;;;5026018;28;20580;-58
2023/02/08 12:44:38;;;;;;;34.80;22.33;;;7.40;99.90;;;;;;5029491;28;20264;-59
2023/02/08 12:47:23;;;;;;;21.13;14.47;;;7.40;99.90;;;;;;5027652;28;20239;-58
2023/02/08 12:50:02;;;;;;;19.83;12.83;;;7.40;99.90;;;;;;5033629;28;20229;-59
2023/02/08 12:52:36;;;;;;;15.67;11.53;;;7.30;99.90;;;;;;5038254;28;20696;-59
2023/02/08 12:55:13;;;;;;;15.43;11.03;;;7.40;99.90;;;;;;5037547;28;20232;-58
2023/02/08 12:57:45;;;;;;;17.17;11.23;;;7.50;99.90;;;;;;5037003;28;20273;-58
2023/02/08 13:00:21;;;;;;;14.47;10.53;;;7.50;99.90;;;;;;5039349;28;20580;-58
2023/02/08 13:02:56;;;;;;;15.60;10.17;;;7.50;99.90;;;;;;5041641;28;20232;-58